Grand Canyon National Park Airport
KGCN : rendu visible

Aérodrome :











RETROUVEZ-NOUS SUR...

 
LOGIN :

S'inscrire | Disclaimer

   EN    FR    IT 

 









Légende :    VFR   VFR Marginal   IFR   IFR Intensif   IFR Très Intensif
Visi : 
Plafond : 
>= 8 km
>= 3000ft
5 à 8 km
1000 à 3000 ft
1500m à 5 km
500 à 1000 ft
800 à 1500m
200 à 500 ft
< 800m
< 200 ft
Symboles :   Orages  Brouillard  Fortes neiges  Fortes précipitations  Vent > 20 kt






- Altitude de l'aérodrome : 6609 ft
- Code IATA : GCN


KGCN - Grand Canyon National Park

DERNIER METAR :
  • 240954Z AUTO 00000KT 10SM CLR 04/M06 A3029 RMK AO2 SLP178 T00391056

METARs EXPIRÉS :
  • 240854Z AUTO 03003KT 10SM CLR 06/M05 A3029 RMK AO2 SLP174 T00561050 58007
  • 240754Z AUTO 03003KT 10SM CLR 06/M04 A3030 RMK AO2 SLP178 T00611044

TAF KGCN
Valide du 24 à 06h jusqu'au 25 à 06h UTC


240534Z 2406/2506 00000KT P6SM SKC
FM241900 23009G16KT P6SM FEW110
FM250200 VRB03KT P6SM SKC
FIR KZLA / Amérique du Nord



MET'MAP, la Météo Aéronautique d'un coup d'oeil ! - Copyright ORBIFLY Décembre 2007 - Disclaimer

ORBIFLY MET'MAP TEAM :

Programmation & Développement : Alexandra Zaïnal
Sur une idée originale de : Baudouin d'Aumeries
Assistance à la programmation : Marc-Olivier Méhu
Soutien technique & logistique : Manuel Goepfert

Contact : metmap@orbifly.com




SOURCES & CREDITS :

   NOAA       Earth
Advisory